sensor_id;sensor_type;location;lat;lon;timestamp;P1;durP1;ratioP1;P2;durP2;ratioP2
27031;SDS011;14580;52.918;9.214;2023-03-07T00:00:46;39.43;;;18.87;;
27031;SDS011;14580;52.918;9.214;2023-03-07T00:04:11;33.37;;;17.37;;
27031;SDS011;14580;52.918;9.214;2023-03-07T00:07:38;28.17;;;16.87;;
27031;SDS011;14580;52.918;9.214;2023-03-07T00:11:04;33.43;;;18.10;;
27031;SDS011;14580;52.918;9.214;2023-03-07T00:14:31;32.73;;;17.20;;
27031;SDS011;14580;52.918;9.214;2023-03-07T00:17:56;29.73;;;17.53;;
27031;SDS011;14580;52.918;9.214;2023-03-07T00:21:21;32.63;;;16.83;;
27031;SDS011;14580;52.918;9.214;2023-03-07T00:24:46;32.00;;;17.17;;
27031;SDS011;14580;52.918;9.214;2023-03-07T00:28:19;31.33;;;16.47;;
27031;SDS011;14580;52.918;9.214;2023-03-07T00:31:44;28.63;;;16.10;;
27031;SDS011;14580;52.918;9.214;2023-03-07T00:35:09;33.13;;;18.63;;
27031;SDS011;14580;52.918;9.214;2023-03-07T00:38:38;28.53;;;17.83;;
27031;SDS011;14580;52.918;9.214;2023-03-07T00:42:03;30.20;;;16.80;;
27031;SDS011;14580;52.918;9.214;2023-03-07T00:45:28;34.77;;;16.80;;
27031;SDS011;14580;52.918;9.214;2023-03-07T00:48:53;28.17;;;15.53;;
27031;SDS011;14580;52.918;9.214;2023-03-07T00:52:18;33.27;;;16.90;;
27031;SDS011;14580;52.918;9.214;2023-03-07T00:55:59;27.37;;;15.57;;
27031;SDS011;14580;52.918;9.214;2023-03-07T00:59:28;32.80;;;17.27;;
27031;SDS011;14580;52.918;9.214;2023-03-07T01:02:52;30.90;;;18.10;;
27031;SDS011;14580;52.918;9.214;2023-03-07T01:06:18;31.70;;;16.87;;
27031;SDS011;14580;52.918;9.214;2023-03-07T01:09:44;27.73;;;15.73;;
27031;SDS011;14580;52.918;9.214;2023-03-07T01:13:14;25.13;;;14.90;;
27031;SDS011;14580;52.918;9.214;2023-03-07T01:16:40;28.13;;;14.83;;
27031;SDS011;14580;52.918;9.214;2023-03-07T01:20:04;27.60;;;16.33;;
27031;SDS011;14580;52.918;9.214;2023-03-07T01:23:40;30.00;;;16.07;;
27031;SDS011;14580;52.918;9.214;2023-03-07T01:27:04;31.03;;;15.13;;
27031;SDS011;14580;52.918;9.214;2023-03-07T01:30:30;27.93;;;15.30;;
27031;SDS011;14580;52.918;9.214;2023-03-07T01:33:56;26.67;;;13.30;;
27031;SDS011;14580;52.918;9.214;2023-03-07T01:37:21;24.00;;;13.57;;
27031;SDS011;14580;52.918;9.214;2023-03-07T01:40:45;23.10;;;12.67;;
27031;SDS011;14580;52.918;9.214;2023-03-07T01:44:20;23.50;;;14.07;;
27031;SDS011;14580;52.918;9.214;2023-03-07T01:47:58;26.20;;;14.43;;
27031;SDS011;14580;52.918;9.214;2023-03-07T01:51:22;21.97;;;12.63;;
27031;SDS011;14580;52.918;9.214;2023-03-07T01:58:35;22.90;;;12.73;;
27031;SDS011;14580;52.918;9.214;2023-03-07T02:02:06;19.00;;;11.40;;
27031;SDS011;14580;52.918;9.214;2023-03-07T02:05:44;27.17;;;14.27;;
27031;SDS011;14580;52.918;9.214;2023-03-07T02:09:14;16.47;;;9.90;;
27031;SDS011;14580;52.918;9.214;2023-03-07T02:12:43;20.70;;;11.37;;
27031;SDS011;14580;52.918;9.214;2023-03-07T02:16:08;16.13;;;10.67;;
27031;SDS011;14580;52.918;9.214;2023-03-07T02:27:04;18.30;;;10.77;;
27031;SDS011;14580;52.918;9.214;2023-03-07T02:30:30;18.60;;;9.83;;
27031;SDS011;14580;52.918;9.214;2023-03-07T02:33:54;15.97;;;10.30;;
27031;SDS011;14580;52.918;9.214;2023-03-07T02:37:30;16.73;;;10.07;;
27031;SDS011;14580;52.918;9.214;2023-03-07T02:41:00;15.30;;;9.70;;
27031;SDS011;14580;52.918;9.214;2023-03-07T02:44:28;14.77;;;9.33;;
27031;SDS011;14580;52.918;9.214;2023-03-07T02:47:52;14.33;;;9.10;;
27031;SDS011;14580;52.918;9.214;2023-03-07T02:51:17;13.23;;;8.43;;
27031;SDS011;14580;52.918;9.214;2023-03-07T02:54:41;15.73;;;8.50;;
27031;SDS011;14580;52.918;9.214;2023-03-07T02:58:06;14.03;;;8.80;;
27031;SDS011;14580;52.918;9.214;2023-03-07T03:01:30;17.40;;;9.30;;
27031;SDS011;14580;52.918;9.214;2023-03-07T03:04:55;14.90;;;8.87;;
27031;SDS011;14580;52.918;9.214;2023-03-07T03:08:20;15.77;;;8.63;;
27031;SDS011;14580;52.918;9.214;2023-03-07T03:11:44;15.50;;;8.50;;
27031;SDS011;14580;52.918;9.214;2023-03-07T03:15:09;15.87;;;9.20;;
27031;SDS011;14580;52.918;9.214;2023-03-07T03:18:34;15.93;;;8.47;;
27031;SDS011;14580;52.918;9.214;2023-03-07T03:21:59;13.60;;;7.87;;
27031;SDS011;14580;52.918;9.214;2023-03-07T03:25:24;15.00;;;8.80;;
27031;SDS011;14580;52.918;9.214;2023-03-07T03:28:49;11.93;;;7.53;;
27031;SDS011;14580;52.918;9.214;2023-03-07T03:32:13;12.03;;;7.43;;
27031;SDS011;14580;52.918;9.214;2023-03-07T03:35:38;12.77;;;7.80;;
27031;SDS011;14580;52.918;9.214;2023-03-07T03:39:03;13.20;;;7.47;;
27031;SDS011;14580;52.918;9.214;2023-03-07T03:42:38;12.63;;;6.97;;
27031;SDS011;14580;52.918;9.214;2023-03-07T03:46:04;10.80;;;6.57;;
27031;SDS011;14580;52.918;9.214;2023-03-07T03:49:29;10.27;;;5.43;;
27031;SDS011;14580;52.918;9.214;2023-03-07T03:52:53;8.50;;;5.00;;
27031;SDS011;14580;52.918;9.214;2023-03-07T03:56:19;5.10;;;3.90;;
27031;SDS011;14580;52.918;9.214;2023-03-07T03:59:45;5.33;;;4.07;;
27031;SDS011;14580;52.918;9.214;2023-03-07T04:03:10;6.33;;;3.73;;
27031;SDS011;14580;52.918;9.214;2023-03-07T04:06:35;5.60;;;3.77;;
27031;SDS011;14580;52.918;9.214;2023-03-07T04:09:59;5.57;;;3.10;;
27031;SDS011;14580;52.918;9.214;2023-03-07T04:13:24;4.93;;;3.60;;
27031;SDS011;14580;52.918;9.214;2023-03-07T04:16:49;6.27;;;3.37;;
27031;SDS011;14580;52.918;9.214;2023-03-07T04:20:14;5.33;;;3.50;;
27031;SDS011;14580;52.918;9.214;2023-03-07T04:23:38;5.13;;;3.70;;
27031;SDS011;14580;52.918;9.214;2023-03-07T04:27:03;5.47;;;3.53;;
27031;SDS011;14580;52.918;9.214;2023-03-07T04:30:27;4.20;;;3.13;;
27031;SDS011;14580;52.918;9.214;2023-03-07T04:33:53;5.30;;;3.33;;
27031;SDS011;14580;52.918;9.214;2023-03-07T04:37:18;7.60;;;3.57;;
27031;SDS011;14580;52.918;9.214;2023-03-07T04:40:43;9.57;;;4.17;;
27031;SDS011;14580;52.918;9.214;2023-03-07T04:44:08;5.67;;;3.90;;
27031;SDS011;14580;52.918;9.214;2023-03-07T04:47:33;6.90;;;3.20;;
27031;SDS011;14580;52.918;9.214;2023-03-07T04:50:57;9.20;;;4.13;;
27031;SDS011;14580;52.918;9.214;2023-03-07T04:54:22;6.47;;;3.37;;
27031;SDS011;14580;52.918;9.214;2023-03-07T04:57:47;7.73;;;3.13;;
27031;SDS011;14580;52.918;9.214;2023-03-07T05:01:11;5.97;;;3.10;;
27031;SDS011;14580;52.918;9.214;2023-03-07T05:04:36;6.20;;;3.33;;
27031;SDS011;14580;52.918;9.214;2023-03-07T05:08:01;5.80;;;3.20;;
27031;SDS011;14580;52.918;9.214;2023-03-07T05:11:27;6.10;;;3.00;;
27031;SDS011;14580;52.918;9.214;2023-03-07T05:14:51;6.43;;;2.83;;
27031;SDS011;14580;52.918;9.214;2023-03-07T05:18:17;5.23;;;2.37;;
27031;SDS011;14580;52.918;9.214;2023-03-07T05:21:42;4.53;;;2.60;;
27031;SDS011;14580;52.918;9.214;2023-03-07T05:25:06;4.97;;;2.40;;
27031;SDS011;14580;52.918;9.214;2023-03-07T05:28:31;7.03;;;2.83;;
27031;SDS011;14580;52.918;9.214;2023-03-07T05:31:56;5.23;;;2.33;;
27031;SDS011;14580;52.918;9.214;2023-03-07T05:35:20;2.77;;;1.83;;
27031;SDS011;14580;52.918;9.214;2023-03-07T05:38:45;3.60;;;2.10;;
27031;SDS011;14580;52.918;9.214;2023-03-07T05:42:09;6.07;;;1.70;;
27031;SDS011;14580;52.918;9.214;2023-03-07T05:45:35;2.87;;;1.40;;
27031;SDS011;14580;52.918;9.214;2023-03-07T05:48:59;3.30;;;1.33;;
27031;SDS011;14580;52.918;9.214;2023-03-07T05:52:24;4.67;;;1.20;;
27031;SDS011;14580;52.918;9.214;2023-03-07T05:55:48;5.13;;;1.40;;
27031;SDS011;14580;52.918;9.214;2023-03-07T05:59:13;4.47;;;1.37;;
27031;SDS011;14580;52.918;9.214;2023-03-07T06:02:39;5.80;;;0.90;;
27031;SDS011;14580;52.918;9.214;2023-03-07T06:06:04;4.73;;;1.00;;
27031;SDS011;14580;52.918;9.214;2023-03-07T06:09:29;1.30;;;0.97;;
27031;SDS011;14580;52.918;9.214;2023-03-07T06:12:54;11.10;;;1.37;;
27031;SDS011;14580;52.918;9.214;2023-03-07T06:16:20;2.57;;;0.50;;
27031;SDS011;14580;52.918;9.214;2023-03-07T06:19:44;3.23;;;0.93;;
27031;SDS011;14580;52.918;9.214;2023-03-07T06:23:09;10.33;;;1.50;;
27031;SDS011;14580;52.918;9.214;2023-03-07T06:26:34;2.87;;;0.60;;
27031;SDS011;14580;52.918;9.214;2023-03-07T06:29:59;3.33;;;1.37;;
27031;SDS011;14580;52.918;9.214;2023-03-07T06:33:24;1.47;;;0.83;;
27031;SDS011;14580;52.918;9.214;2023-03-07T06:36:49;3.13;;;0.73;;
27031;SDS011;14580;52.918;9.214;2023-03-07T06:40:14;1.07;;;0.60;;
27031;SDS011;14580;52.918;9.214;2023-03-07T06:43:39;2.23;;;0.57;;
27031;SDS011;14580;52.918;9.214;2023-03-07T06:47:04;4.43;;;1.10;;
27031;SDS011;14580;52.918;9.214;2023-03-07T06:50:29;2.10;;;0.90;;
27031;SDS011;14580;52.918;9.214;2023-03-07T06:53:54;2.53;;;0.90;;
27031;SDS011;14580;52.918;9.214;2023-03-07T06:57:18;6.00;;;1.50;;
27031;SDS011;14580;52.918;9.214;2023-03-07T07:00:43;2.47;;;0.90;;
27031;SDS011;14580;52.918;9.214;2023-03-07T07:04:09;2.67;;;0.93;;
27031;SDS011;14580;52.918;9.214;2023-03-07T07:07:34;7.37;;;1.00;;
27031;SDS011;14580;52.918;9.214;2023-03-07T07:10:59;7.20;;;0.70;;
27031;SDS011;14580;52.918;9.214;2023-03-07T07:14:23;3.00;;;1.47;;
27031;SDS011;14580;52.918;9.214;2023-03-07T07:17:49;3.90;;;0.97;;
27031;SDS011;14580;52.918;9.214;2023-03-07T07:21:16;8.23;;;1.33;;
27031;SDS011;14580;52.918;9.214;2023-03-07T07:24:42;7.07;;;1.00;;
27031;SDS011;14580;52.918;9.214;2023-03-07T07:28:06;4.33;;;1.70;;
27031;SDS011;14580;52.918;9.214;2023-03-07T07:31:31;1.60;;;0.53;;
27031;SDS011;14580;52.918;9.214;2023-03-07T07:34:56;4.03;;;1.03;;
27031;SDS011;14580;52.918;9.214;2023-03-07T07:38:21;6.50;;;1.13;;
27031;SDS011;14580;52.918;9.214;2023-03-07T07:41:47;2.43;;;0.63;;
27031;SDS011;14580;52.918;9.214;2023-03-07T07:45:19;2.77;;;0.83;;
27031;SDS011;14580;52.918;9.214;2023-03-07T07:48:47;4.27;;;1.03;;
27031;SDS011;14580;52.918;9.214;2023-03-07T07:52:12;3.20;;;0.80;;
27031;SDS011;14580;52.918;9.214;2023-03-07T07:55:38;2.00;;;1.00;;
27031;SDS011;14580;52.918;9.214;2023-03-07T07:59:02;13.63;;;1.33;;
27031;SDS011;14580;52.918;9.214;2023-03-07T08:02:29;0.97;;;0.63;;
27031;SDS011;14580;52.918;9.214;2023-03-07T08:05:55;10.90;;;1.13;;
27031;SDS011;14580;52.918;9.214;2023-03-07T08:09:21;4.47;;;0.60;;
27031;SDS011;14580;52.918;9.214;2023-03-07T08:12:47;5.33;;;1.13;;
27031;SDS011;14580;52.918;9.214;2023-03-07T08:16:14;1.30;;;0.70;;
27031;SDS011;14580;52.918;9.214;2023-03-07T08:19:40;8.23;;;0.90;;
27031;SDS011;14580;52.918;9.214;2023-03-07T08:23:05;3.13;;;0.93;;
27031;SDS011;14580;52.918;9.214;2023-03-07T08:26:30;0.97;;;0.67;;
27031;SDS011;14580;52.918;9.214;2023-03-07T08:29:55;3.47;;;1.00;;
27031;SDS011;14580;52.918;9.214;2023-03-07T08:33:20;1.37;;;0.93;;
27031;SDS011;14580;52.918;9.214;2023-03-07T08:36:45;9.43;;;1.17;;
27031;SDS011;14580;52.918;9.214;2023-03-07T08:40:10;5.77;;;1.13;;
27031;SDS011;14580;52.918;9.214;2023-03-07T08:43:36;3.07;;;1.23;;
27031;SDS011;14580;52.918;9.214;2023-03-07T08:47:01;4.07;;;0.83;;
27031;SDS011;14580;52.918;9.214;2023-03-07T08:50:26;3.07;;;1.73;;
27031;SDS011;14580;52.918;9.214;2023-03-07T08:53:51;4.37;;;0.90;;
27031;SDS011;14580;52.918;9.214;2023-03-07T08:57:16;6.43;;;1.57;;
27031;SDS011;14580;52.918;9.214;2023-03-07T09:00:41;3.93;;;0.73;;
27031;SDS011;14580;52.918;9.214;2023-03-07T09:04:06;6.17;;;1.10;;
27031;SDS011;14580;52.918;9.214;2023-03-07T09:07:31;1.63;;;0.97;;
27031;SDS011;14580;52.918;9.214;2023-03-07T09:10:59;5.47;;;0.70;;
27031;SDS011;14580;52.918;9.214;2023-03-07T09:14:25;3.33;;;1.03;;
27031;SDS011;14580;52.918;9.214;2023-03-07T09:17:50;1.90;;;0.90;;
27031;SDS011;14580;52.918;9.214;2023-03-07T09:21:14;3.63;;;1.53;;
27031;SDS011;14580;52.918;9.214;2023-03-07T09:24:39;3.63;;;1.00;;
27031;SDS011;14580;52.918;9.214;2023-03-07T09:28:04;3.63;;;0.90;;
27031;SDS011;14580;52.918;9.214;2023-03-07T09:31:29;2.23;;;0.90;;
27031;SDS011;14580;52.918;9.214;2023-03-07T09:34:56;2.87;;;0.90;;
27031;SDS011;14580;52.918;9.214;2023-03-07T09:38:20;3.20;;;1.30;;
27031;SDS011;14580;52.918;9.214;2023-03-07T09:42:06;3.37;;;1.07;;
27031;SDS011;14580;52.918;9.214;2023-03-07T09:50:16;6.70;;;1.60;;
27031;SDS011;14580;52.918;9.214;2023-03-07T09:54:00;1.87;;;0.80;;
27031;SDS011;14580;52.918;9.214;2023-03-07T09:57:55;9.30;;;2.00;;
27031;SDS011;14580;52.918;9.214;2023-03-07T10:01:48;2.83;;;0.90;;
27031;SDS011;14580;52.918;9.214;2023-03-07T10:05:31;4.07;;;1.00;;
27031;SDS011;14580;52.918;9.214;2023-03-07T10:09:15;1.93;;;0.70;;
27031;SDS011;14580;52.918;9.214;2023-03-07T10:13:00;4.77;;;1.13;;
27031;SDS011;14580;52.918;9.214;2023-03-07T10:16:57;4.70;;;0.80;;
27031;SDS011;14580;52.918;9.214;2023-03-07T10:28:43;5.37;;;1.23;;
27031;SDS011;14580;52.918;9.214;2023-03-07T10:36:28;3.23;;;1.30;;
27031;SDS011;14580;52.918;9.214;2023-03-07T10:39:51;2.83;;;0.97;;
27031;SDS011;14580;52.918;9.214;2023-03-07T10:43:50;3.90;;;0.83;;
27031;SDS011;14580;52.918;9.214;2023-03-07T10:50:51;5.13;;;1.20;;
27031;SDS011;14580;52.918;9.214;2023-03-07T10:54:43;3.13;;;1.13;;
27031;SDS011;14580;52.918;9.214;2023-03-07T11:01:53;4.67;;;1.27;;
27031;SDS011;14580;52.918;9.214;2023-03-07T11:09:07;8.93;;;2.07;;
27031;SDS011;14580;52.918;9.214;2023-03-07T11:13:10;3.47;;;1.20;;
27031;SDS011;14580;52.918;9.214;2023-03-07T11:16:52;3.70;;;0.80;;
27031;SDS011;14580;52.918;9.214;2023-03-07T11:20:21;0.80;;;0.60;;
27031;SDS011;14580;52.918;9.214;2023-03-07T11:24:27;1.80;;;0.47;;
27031;SDS011;14580;52.918;9.214;2023-03-07T11:28:00;1.90;;;0.67;;
27031;SDS011;14580;52.918;9.214;2023-03-07T11:36:00;1.70;;;0.80;;
27031;SDS011;14580;52.918;9.214;2023-03-07T11:43:22;4.00;;;0.73;;
27031;SDS011;14580;52.918;9.214;2023-03-07T12:02:21;1.50;;;0.90;;
27031;SDS011;14580;52.918;9.214;2023-03-07T12:10:03;1.47;;;1.13;;
27031;SDS011;14580;52.918;9.214;2023-03-07T12:17:41;1.50;;;0.87;;
27031;SDS011;14580;52.918;9.214;2023-03-07T12:25:18;1.17;;;0.87;;
27031;SDS011;14580;52.918;9.214;2023-03-07T12:28:50;3.73;;;1.10;;
27031;SDS011;14580;52.918;9.214;2023-03-07T12:32:31;7.67;;;1.20;;
27031;SDS011;14580;52.918;9.214;2023-03-07T12:40:22;3.10;;;1.20;;
27031;SDS011;14580;52.918;9.214;2023-03-07T12:48:05;3.13;;;1.47;;
27031;SDS011;14580;52.918;9.214;2023-03-07T12:52:00;6.93;;;1.10;;
27031;SDS011;14580;52.918;9.214;2023-03-07T12:55:37;1.67;;;1.00;;
27031;SDS011;14580;52.918;9.214;2023-03-07T12:59:28;5.90;;;1.83;;
27031;SDS011;14580;52.918;9.214;2023-03-07T13:03:00;3.70;;;0.60;;
27031;SDS011;14580;52.918;9.214;2023-03-07T13:06:26;3.30;;;0.87;;
27031;SDS011;14580;52.918;9.214;2023-03-07T13:09:53;6.87;;;1.23;;
27031;SDS011;14580;52.918;9.214;2023-03-07T13:21:16;6.63;;;1.50;;
27031;SDS011;14580;52.918;9.214;2023-03-07T13:24:55;4.80;;;0.77;;
27031;SDS011;14580;52.918;9.214;2023-03-07T13:44:43;3.33;;;1.10;;
27031;SDS011;14580;52.918;9.214;2023-03-07T13:48:10;2.83;;;0.90;;
27031;SDS011;14580;52.918;9.214;2023-03-07T13:59:31;3.87;;;0.70;;
27031;SDS011;14580;52.918;9.214;2023-03-07T14:02:57;4.17;;;1.13;;
27031;SDS011;14580;52.918;9.214;2023-03-07T14:06:57;4.80;;;1.03;;
27031;SDS011;14580;52.918;9.214;2023-03-07T14:10:18;5.87;;;1.27;;
27031;SDS011;14580;52.918;9.214;2023-03-07T14:21:44;5.27;;;1.30;;
27031;SDS011;14580;52.918;9.214;2023-03-07T14:25:50;6.70;;;0.90;;
27031;SDS011;14580;52.918;9.214;2023-03-07T14:29:22;1.63;;;0.80;;
27031;SDS011;14580;52.918;9.214;2023-03-07T14:32:54;3.73;;;1.10;;
27031;SDS011;14580;52.918;9.214;2023-03-07T14:36:26;3.67;;;0.80;;
27031;SDS011;14580;52.918;9.214;2023-03-07T14:51:28;1.23;;;0.57;;
27031;SDS011;14580;52.918;9.214;2023-03-07T14:54:57;6.00;;;0.70;;
27031;SDS011;14580;52.918;9.214;2023-03-07T14:58:25;3.57;;;1.80;;
27031;SDS011;14580;52.918;9.214;2023-03-07T15:01:51;4.03;;;1.33;;
27031;SDS011;14580;52.918;9.214;2023-03-07T15:05:19;4.17;;;0.53;;
27031;SDS011;14580;52.918;9.214;2023-03-07T15:08:47;3.93;;;1.00;;
27031;SDS011;14580;52.918;9.214;2023-03-07T15:12:14;5.43;;;1.03;;
27031;SDS011;14580;52.918;9.214;2023-03-07T15:15:49;6.40;;;0.90;;
27031;SDS011;14580;52.918;9.214;2023-03-07T15:23:34;3.63;;;0.93;;
27031;SDS011;14580;52.918;9.214;2023-03-07T15:27:04;4.20;;;1.10;;
27031;SDS011;14580;52.918;9.214;2023-03-07T15:30:31;3.00;;;1.27;;
27031;SDS011;14580;52.918;9.214;2023-03-07T15:34:57;4.53;;;1.13;;
27031;SDS011;14580;52.918;9.214;2023-03-07T15:38:06;5.40;;;1.10;;
27031;SDS011;14580;52.918;9.214;2023-03-07T15:42:01;4.33;;;1.10;;
27031;SDS011;14580;52.918;9.214;2023-03-07T15:45:31;2.93;;;1.67;;
27031;SDS011;14580;52.918;9.214;2023-03-07T15:48:59;1.87;;;1.07;;
27031;SDS011;14580;52.918;9.214;2023-03-07T15:56:01;5.40;;;1.57;;
27031;SDS011;14580;52.918;9.214;2023-03-07T15:59:41;1.67;;;1.07;;
27031;SDS011;14580;52.918;9.214;2023-03-07T16:03:27;2.97;;;0.63;;
27031;SDS011;14580;52.918;9.214;2023-03-07T16:06:42;2.93;;;1.10;;
27031;SDS011;14580;52.918;9.214;2023-03-07T16:09:31;4.17;;;1.00;;
27031;SDS011;14580;52.918;9.214;2023-03-07T16:12:57;4.00;;;0.97;;
27031;SDS011;14580;52.918;9.214;2023-03-07T16:16:24;3.40;;;1.57;;
27031;SDS011;14580;52.918;9.214;2023-03-07T16:19:54;5.80;;;1.07;;
27031;SDS011;14580;52.918;9.214;2023-03-07T16:23:19;3.77;;;1.20;;
27031;SDS011;14580;52.918;9.214;2023-03-07T16:26:44;5.37;;;1.30;;
27031;SDS011;14580;52.918;9.214;2023-03-07T16:30:14;3.87;;;1.73;;
27031;SDS011;14580;52.918;9.214;2023-03-07T16:33:41;4.10;;;1.40;;
27031;SDS011;14580;52.918;9.214;2023-03-07T16:37:06;1.93;;;0.83;;
27031;SDS011;14580;52.918;9.214;2023-03-07T16:40:32;3.83;;;1.23;;
27031;SDS011;14580;52.918;9.214;2023-03-07T16:43:57;3.47;;;1.03;;
27031;SDS011;14580;52.918;9.214;2023-03-07T16:47:22;1.47;;;0.80;;
27031;SDS011;14580;52.918;9.214;2023-03-07T16:50:47;3.00;;;1.27;;
27031;SDS011;14580;52.918;9.214;2023-03-07T16:54:12;1.67;;;1.00;;
27031;SDS011;14580;52.918;9.214;2023-03-07T16:57:38;2.33;;;1.13;;
27031;SDS011;14580;52.918;9.214;2023-03-07T17:01:09;3.40;;;1.30;;
27031;SDS011;14580;52.918;9.214;2023-03-07T17:04:42;1.90;;;0.83;;
27031;SDS011;14580;52.918;9.214;2023-03-07T17:08:07;1.17;;;1.07;;
27031;SDS011;14580;52.918;9.214;2023-03-07T17:11:33;4.47;;;1.40;;
27031;SDS011;14580;52.918;9.214;2023-03-07T17:14:59;3.90;;;1.70;;
27031;SDS011;14580;52.918;9.214;2023-03-07T17:18:24;2.03;;;1.77;;
27031;SDS011;14580;52.918;9.214;2023-03-07T17:21:50;2.93;;;1.63;;
27031;SDS011;14580;52.918;9.214;2023-03-07T17:25:17;4.30;;;2.03;;
27031;SDS011;14580;52.918;9.214;2023-03-07T17:28:47;5.37;;;3.13;;
27031;SDS011;14580;52.918;9.214;2023-03-07T17:32:18;4.07;;;1.63;;
27031;SDS011;14580;52.918;9.214;2023-03-07T17:35:43;4.73;;;3.70;;
27031;SDS011;14580;52.918;9.214;2023-03-07T17:39:08;3.27;;;1.87;;
27031;SDS011;14580;52.918;9.214;2023-03-07T17:42:18;9.47;;;3.30;;
27031;SDS011;14580;52.918;9.214;2023-03-07T17:45:43;6.93;;;2.17;;
27031;SDS011;14580;52.918;9.214;2023-03-07T17:49:08;8.07;;;2.70;;
27031;SDS011;14580;52.918;9.214;2023-03-07T17:52:33;6.10;;;1.90;;
27031;SDS011;14580;52.918;9.214;2023-03-07T17:56:09;4.77;;;1.47;;
27031;SDS011;14580;52.918;9.214;2023-03-07T17:59:35;6.67;;;2.20;;
27031;SDS011;14580;52.918;9.214;2023-03-07T18:03:01;3.27;;;2.00;;
27031;SDS011;14580;52.918;9.214;2023-03-07T18:06:27;3.47;;;1.53;;
27031;SDS011;14580;52.918;9.214;2023-03-07T18:09:52;3.50;;;1.30;;
27031;SDS011;14580;52.918;9.214;2023-03-07T18:13:16;1.43;;;1.00;;
27031;SDS011;14580;52.918;9.214;2023-03-07T18:16:42;1.97;;;0.70;;
27031;SDS011;14580;52.918;9.214;2023-03-07T18:20:07;1.57;;;1.10;;
27031;SDS011;14580;52.918;9.214;2023-03-07T18:23:35;2.67;;;2.33;;
27031;SDS011;14580;52.918;9.214;2023-03-07T18:27:03;6.93;;;1.90;;
27031;SDS011;14580;52.918;9.214;2023-03-07T18:30:29;3.13;;;1.43;;
27031;SDS011;14580;52.918;9.214;2023-03-07T18:33:54;3.03;;;1.57;;
27031;SDS011;14580;52.918;9.214;2023-03-07T18:37:19;2.30;;;1.47;;
27031;SDS011;14580;52.918;9.214;2023-03-07T18:40:48;4.07;;;1.63;;
27031;SDS011;14580;52.918;9.214;2023-03-07T18:44:14;8.40;;;1.50;;
27031;SDS011;14580;52.918;9.214;2023-03-07T18:47:39;3.50;;;2.67;;
27031;SDS011;14580;52.918;9.214;2023-03-07T18:51:05;3.47;;;1.40;;
27031;SDS011;14580;52.918;9.214;2023-03-07T18:54:32;6.97;;;1.37;;
27031;SDS011;14580;52.918;9.214;2023-03-07T18:57:34;2.50;;;1.40;;
27031;SDS011;14580;52.918;9.214;2023-03-07T19:01:08;4.57;;;1.40;;
27031;SDS011;14580;52.918;9.214;2023-03-07T19:04:35;2.10;;;1.87;;
27031;SDS011;14580;52.918;9.214;2023-03-07T19:08:11;2.47;;;2.03;;
27031;SDS011;14580;52.918;9.214;2023-03-07T19:11:40;4.57;;;1.73;;
27031;SDS011;14580;52.918;9.214;2023-03-07T19:15:05;4.90;;;0.80;;
27031;SDS011;14580;52.918;9.214;2023-03-07T19:18:36;4.87;;;1.83;;
27031;SDS011;14580;52.918;9.214;2023-03-07T19:22:00;4.93;;;1.83;;
27031;SDS011;14580;52.918;9.214;2023-03-07T19:25:26;3.67;;;1.30;;
27031;SDS011;14580;52.918;9.214;2023-03-07T19:28:52;2.13;;;1.13;;
27031;SDS011;14580;52.918;9.214;2023-03-07T19:32:18;1.60;;;1.10;;
27031;SDS011;14580;52.918;9.214;2023-03-07T19:35:17;1.43;;;0.70;;
27031;SDS011;14580;52.918;9.214;2023-03-07T19:38:46;1.93;;;1.53;;
27031;SDS011;14580;52.918;9.214;2023-03-07T19:41:51;5.33;;;1.50;;
27031;SDS011;14580;52.918;9.214;2023-03-07T19:45:16;2.97;;;1.10;;
27031;SDS011;14580;52.918;9.214;2023-03-07T19:48:42;4.07;;;1.07;;
27031;SDS011;14580;52.918;9.214;2023-03-07T19:52:07;5.77;;;2.20;;
27031;SDS011;14580;52.918;9.214;2023-03-07T19:55:31;2.03;;;1.10;;
27031;SDS011;14580;52.918;9.214;2023-03-07T19:58:57;1.03;;;0.93;;
27031;SDS011;14580;52.918;9.214;2023-03-07T20:02:23;4.57;;;1.93;;
27031;SDS011;14580;52.918;9.214;2023-03-07T20:05:48;3.40;;;1.33;;
27031;SDS011;14580;52.918;9.214;2023-03-07T20:09:12;4.57;;;1.60;;
27031;SDS011;14580;52.918;9.214;2023-03-07T20:12:37;2.13;;;1.20;;
27031;SDS011;14580;52.918;9.214;2023-03-07T20:16:03;3.47;;;1.70;;
27031;SDS011;14580;52.918;9.214;2023-03-07T20:19:28;2.13;;;1.27;;
27031;SDS011;14580;52.918;9.214;2023-03-07T20:22:53;2.70;;;1.30;;
27031;SDS011;14580;52.918;9.214;2023-03-07T20:26:20;1.07;;;0.97;;
27031;SDS011;14580;52.918;9.214;2023-03-07T20:29:48;3.23;;;1.17;;
27031;SDS011;14580;52.918;9.214;2023-03-07T20:33:14;2.47;;;1.20;;
27031;SDS011;14580;52.918;9.214;2023-03-07T20:36:39;3.93;;;1.10;;
27031;SDS011;14580;52.918;9.214;2023-03-07T20:40:05;2.47;;;1.37;;
27031;SDS011;14580;52.918;9.214;2023-03-07T20:43:32;6.03;;;1.37;;
27031;SDS011;14580;52.918;9.214;2023-03-07T20:46:57;2.63;;;1.03;;
27031;SDS011;14580;52.918;9.214;2023-03-07T20:50:22;1.93;;;1.23;;
27031;SDS011;14580;52.918;9.214;2023-03-07T20:54:31;5.10;;;1.37;;
27031;SDS011;14580;52.918;9.214;2023-03-07T20:58:27;1.80;;;1.20;;
27031;SDS011;14580;52.918;9.214;2023-03-07T21:16:23;5.33;;;2.03;;
27031;SDS011;14580;52.918;9.214;2023-03-07T21:20:13;2.10;;;1.40;;
27031;SDS011;14580;52.918;9.214;2023-03-07T21:23:44;5.90;;;1.90;;
27031;SDS011;14580;52.918;9.214;2023-03-07T21:28:04;4.63;;;1.60;;
27031;SDS011;14580;52.918;9.214;2023-03-07T21:36:52;3.97;;;1.90;;
27031;SDS011;14580;52.918;9.214;2023-03-07T21:49:22;2.13;;;1.60;;
27031;SDS011;14580;52.918;9.214;2023-03-07T21:52:54;2.47;;;1.83;;
27031;SDS011;14580;52.918;9.214;2023-03-07T21:56:25;2.83;;;2.03;;
27031;SDS011;14580;52.918;9.214;2023-03-07T21:59:53;2.30;;;2.10;;
27031;SDS011;14580;52.918;9.214;2023-03-07T22:07:36;2.73;;;2.03;;
27031;SDS011;14580;52.918;9.214;2023-03-07T22:11:17;3.10;;;2.27;;
27031;SDS011;14580;52.918;9.214;2023-03-07T22:14:55;2.03;;;1.80;;
27031;SDS011;14580;52.918;9.214;2023-03-07T22:18:21;3.37;;;2.00;;
27031;SDS011;14580;52.918;9.214;2023-03-07T22:21:51;2.90;;;1.60;;
27031;SDS011;14580;52.918;9.214;2023-03-07T22:28:44;5.97;;;1.70;;
27031;SDS011;14580;52.918;9.214;2023-03-07T22:32:15;6.80;;;2.00;;
27031;SDS011;14580;52.918;9.214;2023-03-07T22:35:40;1.63;;;1.53;;
27031;SDS011;14580;52.918;9.214;2023-03-07T22:39:08;4.70;;;2.43;;
27031;SDS011;14580;52.918;9.214;2023-03-07T22:42:55;3.90;;;1.77;;
27031;SDS011;14580;52.918;9.214;2023-03-07T22:56:32;4.13;;;1.80;;
27031;SDS011;14580;52.918;9.214;2023-03-07T23:04:36;3.70;;;1.80;;
27031;SDS011;14580;52.918;9.214;2023-03-07T23:08:01;2.53;;;1.63;;
27031;SDS011;14580;52.918;9.214;2023-03-07T23:11:28;2.40;;;1.97;;
27031;SDS011;14580;52.918;9.214;2023-03-07T23:14:54;3.37;;;2.20;;
27031;SDS011;14580;52.918;9.214;2023-03-07T23:18:19;1.80;;;1.70;;
27031;SDS011;14580;52.918;9.214;2023-03-07T23:21:44;1.83;;;1.70;;
27031;SDS011;14580;52.918;9.214;2023-03-07T23:25:09;2.90;;;1.80;;
27031;SDS011;14580;52.918;9.214;2023-03-07T23:28:39;3.53;;;2.60;;
27031;SDS011;14580;52.918;9.214;2023-03-07T23:32:04;3.97;;;2.30;;
27031;SDS011;14580;52.918;9.214;2023-03-07T23:35:31;4.43;;;2.40;;
27031;SDS011;14580;52.918;9.214;2023-03-07T23:38:57;4.60;;;2.63;;
27031;SDS011;14580;52.918;9.214;2023-03-07T23:42:22;3.00;;;2.37;;
27031;SDS011;14580;52.918;9.214;2023-03-07T23:45:47;3.73;;;2.37;;
27031;SDS011;14580;52.918;9.214;2023-03-07T23:49:12;4.43;;;2.90;;
27031;SDS011;14580;52.918;9.214;2023-03-07T23:52:37;5.20;;;2.90;;
27031;SDS011;14580;52.918;9.214;2023-03-07T23:56:05;3.50;;;2.60;;
27031;SDS011;14580;52.918;9.214;2023-03-07T23:59:31;5.67;;;2.70;;
